YVR weather

Vancouver International Airport
Vancouver, British Columbia, Canada

Public forecast

Using degrees Celsius for public forecast. Weather courtesy of forecast.io.

METAR (pilot weather report)

Retrieved 2018/06/24 06:00 UTC (25 minutes ago):

CYVR 240600Z 08007KT 20SM FEW035 FEW250 17/11 A3012 RMK SC1CI1 SC TR CI TR SLP200

TAF (pilot weather forecast)

Retrieved 2018/06/24 06:40 UTC (0 seconds ago):

TAF CYVR 240538Z 2406/2512 VRB03KT P6SM FEW040 BECMG 2410/2412 09008KT FM241700 20008KT P6SM BKN100 BECMG 2418/2420 29010KT BECMG 2422/2424 32015G25KT FM250300 32015G25KT P6SM SCT030 OVC080 TEMPO 2503/2506 P6SM -SHRA BECMG 2504/2506 VRB03KT FM250800 13008KT P6SM BKN040 RMK NXT FCST BY 240900Z